KBLI/BLI METAR and TAF weather

Enter ICAO airport designator
Station Type Date Time Source
KBLI METAR 2021/03/04 20:53 UTC NOAA

KBLI 042053Z 17013G25KT 10SM FEW110 14/02 A2992 RMK AO2 PK WND 15029/2036 SLP141 T01390022 50001


Station Type Date Time Source
KBLI Decoded METAR 2021/03/04 20:53 UTC NOAA

BELLINGHAM INTERNATIONAL AIRPORT, WA, United States (KBLI) 48-48N 122-32W 50M
Mar 04, 2021 - 03:53 PM EST / 2021.03.04 2053 UTC
Wind: from the S (170 degrees) at 15 MPH (13 KT) gusting to 29 MPH (25 KT):0
Visibility: 10 mile(s):0
Sky conditions: mostly clear
Temperature: 57.0 F (13.9 C)
Dew Point: 36.0 F (2.2 C)
Relative Humidity: 45%
Pressure (altimeter): 29.92 in. Hg (1013 hPa)
Pressure tendency: 0.00 inches (0.1 hPa) higher than three hours ago
ob: KBLI 042053Z 17013G25KT 10SM FEW110 14/02 A2992 RMK AO2 PK WND 15029/2036 SLP141 T01390022 50001
cycle: 21

Station Type Date Time Source
KBLI TAF 2021/03/04 18:30 UTC NOAA

TAF KBLI 041728Z 0418/0518 VRB03KT P6SM BKN160 BKN250
FM042200 16013G22KT P6SM SCT050 OVC100
TEMPO 0500/0502 P6SM -RA OVC050
FM050200 16011KT 6SM -RA OVC030
FM050900 VRB04KT P6SM -RA OVC050

Example: see airport list